Time;durP1;ratioP1;P1;durP2;ratioP2;P2;SDS_P1;SDS_P2;PMS_P1;PMS_P2;Temp;Humidity;BMP_temperature;BMP_pressure;BME280_temperature;BME280_humidity;BME280_pressure;Samples;Min_cycle;Max_cycle;Signal;HPM_P1;HPM_P2
2023/07/06 00:01:23;;;;;;;5.32;3.28;;;13.00;99.90;;;;;;7378764;32;20157;-56
2023/07/06 00:05:25;;;;;;;7.60;3.45;;;13.10;99.90;;;;;;7376514;32;20151;-56
2023/07/06 00:09:27;;;;;;;7.97;3.30;;;13.10;99.90;;;;;;7373154;32;20111;-56
2023/07/06 00:13:28;;;;;;;5.12;2.78;;;13.10;99.90;;;;;;7372819;32;20242;-56
2023/07/06 00:17:30;;;;;;;4.47;2.75;;;13.20;99.90;;;;;;7375973;32;20555;-56
2023/07/06 00:21:32;;;;;;;3.70;2.80;;;13.10;99.90;;;;;;7383296;32;20106;-56
2023/07/06 00:25:34;;;;;;;4.32;2.67;;;13.10;99.90;;;;;;7376831;32;20123;-56
2023/07/06 00:29:46;;;;;;;3.72;2.17;;;13.10;99.90;;;;;;7378783;32;20119;-56
2023/07/06 00:33:52;;;;;;;7.18;3.00;;;13.00;99.90;;;;;;7376101;32;20119;-55
2023/07/06 00:37:55;;;;;;;7.53;3.30;;;13.10;99.90;;;;;;7373716;32;20137;-56
2023/07/06 00:41:58;;;;;;;7.07;3.03;;;13.00;99.90;;;;;;7371924;32;20552;-56
2023/07/06 00:46:10;;;;;;;7.12;3.05;;;13.00;99.90;;;;;;7370197;32;20206;-55
2023/07/06 00:50:21;;;;;;;4.95;3.10;;;12.90;99.90;;;;;;7373471;32;20127;-56
2023/07/06 00:54:24;;;;;;;3.90;3.00;;;12.90;99.90;;;;;;7369961;32;20542;-55
2023/07/06 00:58:36;;;;;;;6.35;2.90;;;12.90;99.90;;;;;;7380839;32;20133;-55
2023/07/06 01:02:40;;;;;;;5.62;3.05;;;12.80;99.90;;;;;;7368979;32;20253;-56
2023/07/06 01:06:47;;;;;;;4.95;3.03;;;12.80;99.90;;;;;;7377566;32;20107;-56
2023/07/06 01:10:52;;;;;;;6.17;3.33;;;12.80;99.90;;;;;;7368063;32;20209;-56
2023/07/06 01:14:55;;;;;;;8.45;3.80;;;12.80;99.90;;;;;;7377692;32;20622;-55
2023/07/06 01:19:24;;;;;;;5.53;3.35;;;12.80;99.90;;;;;;7382523;32;20552;-56
2023/07/06 01:23:55;;;;;;;5.87;3.40;;;12.70;99.90;;;;;;7374129;32;20111;-56
2023/07/06 01:28:24;;;;;;;6.28;3.12;;;12.70;99.90;;;;;;7376364;32;20130;-55
2023/07/06 01:32:32;;;;;;;6.03;3.87;;;12.70;99.90;;;;;;7375736;32;20123;-56
2023/07/06 01:36:49;;;;;;;6.50;3.70;;;12.50;99.90;;;;;;7374597;32;20268;-56
2023/07/06 01:40:51;;;;;;;6.53;3.95;;;12.40;99.90;;;;;;7385523;32;20170;-57
2023/07/06 01:44:58;;;;;;;5.37;3.62;;;12.40;99.90;;;;;;7383731;32;20122;-56
2023/07/06 01:48:59;;;;;;;4.90;3.53;;;12.40;99.90;;;;;;7375676;32;20171;-55
2023/07/06 01:53:17;;;;;;;4.40;3.40;;;12.20;99.90;;;;;;7371524;32;20514;-57
2023/07/06 01:57:27;;;;;;;6.05;3.28;;;12.20;99.90;;;;;;7382624;32;20205;-55
2023/07/06 02:01:47;;;;;;;5.62;3.78;;;12.20;99.90;;;;;;7375596;32;20194;-56
2023/07/06 02:05:49;;;;;;;5.20;3.75;;;12.10;99.90;;;;;;7370180;32;20186;-55
2023/07/06 02:09:54;;;;;;;6.37;4.30;;;12.10;99.90;;;;;;7378338;32;20126;-56
2023/07/06 02:13:56;;;;;;;7.12;4.40;;;12.00;99.90;;;;;;7377022;32;20115;-55
2023/07/06 02:17:58;;;;;;;8.32;4.07;;;12.00;99.90;;;;;;7382503;32;20114;-55
2023/07/06 02:22:03;;;;;;;5.57;4.20;;;12.00;99.90;;;;;;7370737;32;20266;-55
2023/07/06 02:26:05;;;;;;;7.12;4.40;;;11.90;99.90;;;;;;7373934;32;20134;-56
2023/07/06 02:30:07;;;;;;;8.52;4.00;;;11.90;99.90;;;;;;7373564;32;20107;-56
2023/07/06 02:34:09;;;;;;;5.87;3.75;;;11.80;99.90;;;;;;7375729;32;20195;-55
2023/07/06 02:38:13;;;;;;;10.38;4.37;;;11.70;99.90;;;;;;7378533;32;20103;-56
2023/07/06 02:42:15;;;;;;;8.50;3.60;;;11.70;99.90;;;;;;7368284;32;20159;-56
2023/07/06 02:46:19;;;;;;;5.47;3.12;;;11.60;99.90;;;;;;7383834;32;20577;-56
2023/07/06 02:50:21;;;;;;;7.80;3.70;;;11.60;99.90;;;;;;7372783;32;20122;-56
2023/07/06 02:54:23;;;;;;;7.78;3.60;;;11.50;99.90;;;;;;7385261;32;20115;-56
2023/07/06 02:58:24;;;;;;;6.70;3.92;;;11.50;99.90;;;;;;7368941;32;20138;-55
2023/07/06 03:02:26;;;;;;;8.50;4.32;;;11.50;99.90;;;;;;7370910;32;20107;-56
2023/07/06 03:06:28;;;;;;;6.37;3.53;;;11.50;99.90;;;;;;7372466;32;20644;-56
2023/07/06 03:10:31;;;;;;;7.75;4.90;;;11.50;99.90;;;;;;7374624;32;20173;-57
2023/07/06 03:14:33;;;;;;;7.20;4.15;;;11.40;99.90;;;;;;7377595;32;20437;-55
2023/07/06 03:18:35;;;;;;;10.13;3.72;;;11.40;99.90;;;;;;7373846;32;20521;-55
2023/07/06 03:22:36;;;;;;;6.75;3.87;;;11.40;99.90;;;;;;7371690;32;20151;-56
2023/07/06 03:26:40;;;;;;;8.40;4.03;;;11.40;99.90;;;;;;7377215;32;20164;-55
2023/07/06 03:30:43;;;;;;;6.62;3.35;;;11.30;99.90;;;;;;7367284;32;20442;-56
2023/07/06 03:34:45;;;;;;;6.75;3.85;;;11.30;99.90;;;;;;7377959;32;20182;-61
2023/07/06 03:38:50;;;;;;;6.12;3.83;;;11.30;99.90;;;;;;7376518;32;20185;-55
2023/07/06 03:42:53;;;;;;;9.75;4.22;;;11.30;99.90;;;;;;7380980;32;20191;-56
2023/07/06 03:46:58;;;;;;;7.28;3.80;;;11.30;99.90;;;;;;7367109;32;20329;-56
2023/07/06 03:51:03;;;;;;;10.00;3.90;;;11.40;99.90;;;;;;7378304;32;20205;-55
2023/07/06 03:55:13;;;;;;;5.72;3.37;;;11.30;99.90;;;;;;7369782;32;20203;-55
2023/07/06 03:59:14;;;;;;;7.97;3.75;;;11.30;99.90;;;;;;7371102;32;20126;-56
2023/07/06 04:03:16;;;;;;;7.40;3.55;;;11.30;99.90;;;;;;7376852;32;20175;-55
2023/07/06 04:07:19;;;;;;;9.15;4.05;;;11.30;99.90;;;;;;7381674;32;20155;-55
2023/07/06 04:11:20;;;;;;;7.68;4.03;;;11.40;99.90;;;;;;7376097;32;20576;-56
2023/07/06 04:15:23;;;;;;;14.02;4.12;;;11.40;99.90;;;;;;7374027;32;20151;-55
2023/07/06 04:19:24;;;;;;;7.95;3.72;;;11.40;99.90;;;;;;7374326;32;20129;-56
2023/07/06 04:23:26;;;;;;;8.30;3.65;;;11.60;99.90;;;;;;7367299;32;20218;-55
2023/07/06 04:27:28;;;;;;;9.20;4.18;;;11.60;99.90;;;;;;7374072;32;20125;-55
2023/07/06 04:31:30;;;;;;;12.07;2.97;;;11.70;99.90;;;;;;7366498;32;20253;-55
2023/07/06 04:35:32;;;;;;;6.45;2.85;;;11.80;99.90;;;;;;7373904;32;20112;-55
2023/07/06 04:39:37;;;;;;;8.38;3.22;;;12.10;99.90;;;;;;7376592;32;20476;-56
2023/07/06 04:43:38;;;;;;;8.10;3.15;;;12.30;99.90;;;;;;7376043;32;20129;-55
2023/07/06 04:47:41;;;;;;;9.25;3.10;;;12.50;99.90;;;;;;7370293;32;20261;-57
2023/07/06 04:51:43;;;;;;;6.60;2.65;;;12.70;99.90;;;;;;7374440;32;20711;-58
2023/07/06 04:55:46;;;;;;;9.75;2.65;;;13.00;99.90;;;;;;7376667;32;20098;-57
2023/07/06 04:59:48;;;;;;;4.90;2.42;;;13.30;99.90;;;;;;7363103;32;20119;-56
2023/07/06 05:03:52;;;;;;;13.13;2.65;;;13.60;99.90;;;;;;7369883;32;20563;-57
2023/07/06 05:07:55;;;;;;;11.15;2.78;;;13.90;99.90;;;;;;7363522;32;20115;-56
2023/07/06 05:11:57;;;;;;;8.90;1.90;;;14.20;99.90;;;;;;7377211;32;20103;-56
2023/07/06 05:15:58;;;;;;;9.23;2.70;;;14.20;99.90;;;;;;7369449;32;20129;-56
2023/07/06 05:20:00;;;;;;;6.12;2.03;;;14.40;99.90;;;;;;7374867;32;20225;-57
2023/07/06 05:24:03;;;;;;;9.95;2.53;;;14.70;99.90;;;;;;7376293;32;20164;-56
2023/07/06 05:28:04;;;;;;;8.75;2.60;;;14.90;99.90;;;;;;7369214;32;20130;-57
2023/07/06 05:32:08;;;;;;;9.15;2.65;;;15.00;99.90;;;;;;7370236;32;20509;-57
2023/07/06 05:36:10;;;;;;;8.45;2.22;;;15.50;99.90;;;;;;7364299;32;20659;-57
2023/07/06 05:40:13;;;;;;;6.03;2.20;;;15.80;99.90;;;;;;7371199;32;20107;-57
2023/07/06 05:44:15;;;;;;;6.78;1.80;;;16.50;99.90;;;;;;7372275;32;20497;-58
2023/07/06 05:48:18;;;;;;;3.90;1.80;;;16.80;99.90;;;;;;7369700;32;20134;-57
2023/07/06 05:52:20;;;;;;;6.68;2.08;;;17.30;99.90;;;;;;7366082;32;20158;-56
2023/07/06 05:56:23;;;;;;;6.40;1.87;;;17.30;99.90;;;;;;7372297;32;20131;-57
2023/07/06 06:00:25;;;;;;;8.45;2.65;;;17.50;99.90;;;;;;7364892;32;20111;-57
2023/07/06 06:04:27;;;;;;;6.35;2.08;;;18.10;99.90;;;;;;7371106;32;20116;-57
2023/07/06 06:08:29;;;;;;;9.65;2.20;;;18.20;99.90;;;;;;7377222;32;20123;-56
2023/07/06 06:12:31;;;;;;;11.27;2.60;;;18.50;99.90;;;;;;7375847;32;20265;-57
2023/07/06 06:16:33;;;;;;;9.25;2.08;;;18.40;99.90;;;;;;7371211;32;20112;-56
2023/07/06 06:20:38;;;;;;;8.57;1.92;;;18.80;99.90;;;;;;7371789;32;20377;-57
2023/07/06 06:24:40;;;;;;;8.43;2.53;;;19.40;99.90;;;;;;7376726;32;20141;-59
2023/07/06 06:28:42;;;;;;;8.65;2.15;;;19.60;99.90;;;;;;7379370;32;20103;-57
2023/07/06 06:32:44;;;;;;;8.52;2.12;;;20.00;99.90;;;;;;7375481;32;20142;-58
2023/07/06 06:36:46;;;;;;;10.65;3.00;;;20.00;99.90;;;;;;7372296;32;20182;-56
2023/07/06 06:40:49;;;;;;;8.48;2.55;;;19.40;99.90;;;;;;7367156;32;20115;-57
2023/07/06 06:44:51;;;;;;;14.70;2.72;;;19.30;99.90;;;;;;7373450;32;20602;-58
2023/07/06 06:48:52;;;;;;;9.88;2.65;;;19.80;99.90;;;;;;7370042;32;20218;-57
2023/07/06 06:52:55;;;;;;;9.77;2.35;;;20.20;99.90;;;;;;7370140;32;20126;-58
2023/07/06 06:56:57;;;;;;;10.05;2.00;;;20.80;99.90;;;;;;7381066;32;20191;-58
2023/07/06 07:01:00;;;;;;;7.75;1.90;;;20.60;99.90;;;;;;7371960;32;20228;-57
2023/07/06 07:05:02;;;;;;;9.80;2.47;;;20.70;99.90;;;;;;7373798;32;20711;-57
2023/07/06 07:09:05;;;;;;;8.70;2.00;;;20.60;99.90;;;;;;7375871;32;20178;-58
2023/07/06 07:13:07;;;;;;;8.43;2.25;;;20.30;99.90;;;;;;7384946;32;20174;-56
2023/07/06 07:17:10;;;;;;;6.60;1.70;;;20.20;99.90;;;;;;7378154;32;20156;-57
2023/07/06 07:21:14;;;;;;;9.48;2.12;;;20.80;99.90;;;;;;7371623;32;20201;-57
2023/07/06 07:25:17;;;;;;;7.62;2.33;;;21.20;99.90;;;;;;7382049;32;20106;-57
2023/07/06 07:29:20;;;;;;;11.60;2.33;;;21.10;99.90;;;;;;7382151;32;20124;-57
2023/07/06 07:33:23;;;;;;;9.00;2.62;;;21.30;99.90;;;;;;7378041;32;20099;-57
2023/07/06 07:37:26;;;;;;;8.75;2.35;;;21.30;99.90;;;;;;7384629;32;20318;-58
2023/07/06 07:41:27;;;;;;;8.52;2.33;;;21.20;99.90;;;;;;7383399;32;20536;-57
2023/07/06 07:45:29;;;;;;;9.43;2.05;;;20.80;99.90;;;;;;7378502;32;20498;-57
2023/07/06 07:49:31;;;;;;;8.30;2.30;;;20.40;99.90;;;;;;7381408;32;20763;-57
2023/07/06 07:53:35;;;;;;;9.57;2.37;;;19.80;99.90;;;;;;7370259;32;20445;-57
2023/07/06 07:57:40;;;;;;;7.97;2.10;;;19.50;99.90;;;;;;7372992;32;20651;-57
2023/07/06 08:01:42;;;;;;;6.93;2.12;;;19.20;99.90;;;;;;7375413;32;20663;-57
2023/07/06 08:05:44;;;;;;;9.95;2.05;;;19.40;99.90;;;;;;7378399;32;20125;-57
2023/07/06 08:09:46;;;;;;;11.35;2.47;;;19.60;99.90;;;;;;7376736;32;20170;-57
2023/07/06 08:13:53;;;;;;;8.93;2.03;;;19.70;99.90;;;;;;7381117;32;20123;-57
2023/07/06 08:18:00;;;;;;;;;;;19.80;99.90;;;;;;7382811;32;20432;-56
2023/07/06 08:22:03;;;;;;;6.05;1.90;;;20.20;99.90;;;;;;7378805;32;20085;-57
2023/07/06 08:26:10;;;;;;;11.18;2.50;;;20.60;99.90;;;;;;7382144;32;20433;-57
2023/07/06 08:30:12;;;;;;;7.65;1.83;;;21.00;99.90;;;;;;7382287;32;20190;-56
2023/07/06 08:34:16;;;;;;;9.23;1.90;;;20.90;99.90;;;;;;7375824;32;20106;-57
2023/07/06 08:38:19;;;;;;;6.20;1.85;;;21.20;99.90;;;;;;7372046;32;20130;-56
2023/07/06 08:42:21;;;;;;;12.15;2.25;;;21.70;99.90;;;;;;7377543;32;20162;-57
2023/07/06 08:46:23;;;;;;;10.43;1.83;;;22.30;99.90;;;;;;7376865;32;20114;-57
2023/07/06 08:50:31;;;;;;;10.00;2.62;;;22.00;99.90;;;;;;7375655;32;20127;-57
2023/07/06 08:54:39;;;;;;;62.28;17.87;;;21.90;99.90;;;;;;7381192;32;20749;-57
2023/07/06 08:58:41;;;;;;;7.28;2.10;;;22.00;99.90;;;;;;7381006;32;20280;-57
2023/07/06 09:02:45;;;;;;;7.68;2.20;;;22.60;99.90;;;;;;7377557;32;20102;-57
2023/07/06 09:06:54;;;;;;;5.60;1.35;;;22.60;99.90;;;;;;7380440;32;20108;-56
2023/07/06 09:10:55;;;;;;;10.43;1.90;;;22.80;99.90;;;;;;7376222;32;20103;-56
2023/07/06 09:15:27;;;;;;;5.43;2.08;;;23.30;99.90;;;;;;7375911;32;20122;-56
2023/07/06 09:19:32;;;;;;;7.10;1.50;;;23.60;99.90;;;;;;7374442;32;20186;-56
2023/07/06 09:23:34;;;;;;;8.20;1.60;;;23.60;99.90;;;;;;7382057;32;20123;-57
2023/07/06 09:27:37;;;;;;;5.43;1.67;;;23.80;99.90;;;;;;7375496;32;20498;-57
2023/07/06 09:31:39;;;;;;;8.02;1.80;;;24.20;99.90;;;;;;7379765;32;20239;-57
2023/07/06 09:35:42;;;;;;;8.57;1.80;;;25.00;99.90;;;;;;7381798;32;20321;-57
2023/07/06 09:40:09;;;;;;;5.40;1.75;;;24.70;99.90;;;;;;7378174;32;20130;-57
2023/07/06 09:44:16;;;;;;;6.82;1.70;;;24.10;99.90;;;;;;7378272;32;20094;-57
2023/07/06 09:48:36;;;;;;;3.97;1.20;;;24.70;99.90;;;;;;7381668;32;20122;-56
2023/07/06 09:52:39;;;;;;;7.25;1.40;;;24.90;99.90;;;;;;7383114;32;20511;-56
2023/07/06 09:56:42;;;;;;;5.35;1.80;;;24.90;99.90;;;;;;7378527;32;20518;-57
2023/07/06 10:00:52;;;;;;;7.85;1.65;;;24.70;99.90;;;;;;7386634;32;20224;-57
2023/07/06 10:05:51;;;;;;;5.95;1.33;;;25.20;99.90;;;;;;7378864;32;20479;-57
2023/07/06 10:09:57;;;;;;;;;;;24.40;99.60;;;;;;7308967;32;20567;-57
2023/07/06 10:14:09;;;;;;;6.03;1.33;;;24.40;99.90;;;;;;7384781;32;20144;-57
2023/07/06 10:18:26;;;;;;;4.93;1.10;;;24.60;99.90;;;;;;7377897;32;20129;-57
2023/07/06 10:22:41;;;;;;;4.80;1.30;;;24.40;99.90;;;;;;7378574;32;20149;-57
2023/07/06 10:26:54;;;;;;;6.43;1.37;;;23.60;99.90;;;;;;7383800;32;20107;-57
2023/07/06 10:30:58;;;;;;;2.62;1.00;;;23.30;99.90;;;;;;7385086;32;20201;-57
2023/07/06 10:35:05;;;;;;;3.42;1.15;;;23.80;99.90;;;;;;7384212;32;20571;-56
2023/07/06 10:39:33;;;;;;;;;;;24.00;99.90;;;;;;7383793;32;20628;-56
2023/07/06 10:43:37;;;;;;;4.40;1.20;;;24.00;99.90;;;;;;7381977;32;20171;-57
2023/07/06 10:47:46;;;;;;;4.30;1.10;;;23.00;99.90;;;;;;7382020;32;20111;-57
2023/07/06 10:51:54;;;;;;;4.80;1.00;;;22.90;99.90;;;;;;7383551;32;20518;-56
2023/07/06 10:56:15;;;;;;;5.25;1.15;;;23.70;99.90;;;;;;7385524;32;20182;-57
2023/07/06 11:00:20;;;;;;;2.62;1.08;;;23.40;99.90;;;;;;7383937;32;20494;-56
2023/07/06 11:04:44;;;;;;;3.30;1.30;;;23.40;99.90;;;;;;7378767;32;20212;-56
2023/07/06 11:09:14;;;;;;;3.25;0.88;;;23.40;99.80;;;;;;7380366;32;20127;-57
2023/07/06 11:13:20;;;;;;;3.40;0.90;;;23.00;99.90;;;;;;7382884;32;20162;-56
2023/07/06 11:17:36;;;;;;;4.25;1.00;;;22.80;99.50;;;;;;7380477;32;20434;-56
2023/07/06 11:21:52;;;;;;;1.70;0.90;;;22.60;98.90;;;;;;7370972;32;20175;-57
2023/07/06 11:25:55;;;;;;;3.10;1.10;;;22.90;99.90;;;;;;7375053;32;20119;-57
2023/07/06 11:30:17;;;;;;;3.03;1.23;;;22.80;98.00;;;;;;7382795;32;20194;-56
2023/07/06 11:34:43;;;;;;;1.75;0.73;;;22.50;98.30;;;;;;7384230;32;20182;-57
2023/07/06 11:38:57;;;;;;;4.05;1.27;;;22.50;99.90;;;;;;7371971;32;20430;-57
2023/07/06 11:43:08;;;;;;;3.85;0.90;;;23.10;99.90;;;;;;7384407;32;20115;-57
2023/07/06 11:47:35;;;;;;;4.90;1.10;;;23.70;99.40;;;;;;7368251;32;20421;-56
2023/07/06 11:51:38;;;;;;;5.07;1.30;;;23.60;96.40;;;;;;7371093;32;20122;-57
2023/07/06 11:55:50;;;;;;;2.33;0.80;;;23.00;97.30;;;;;;7376069;32;20253;-57
2023/07/06 12:00:17;;;;;;;2.53;0.90;;;22.60;98.00;;;;;;7367532;32;20533;-57
2023/07/06 12:04:23;;;;;;;1.67;0.90;;;22.30;99.10;;;;;;7376677;32;20103;-57
2023/07/06 12:08:28;;;;;;;1.95;0.70;;;22.80;98.40;;;;;;7372188;32;20106;-57
2023/07/06 12:12:30;;;;;;;2.22;0.80;;;22.70;94.30;;;;;;7374632;32;20391;-57
2023/07/06 12:16:40;;;;;;;2.45;0.85;;;22.40;95.00;;;;;;7376170;32;20197;-56
2023/07/06 12:20:42;;;;;;;2.72;0.90;;;22.90;95.60;;;;;;7377106;32;20586;-57
2023/07/06 12:24:45;;;;;;;3.15;0.88;;;22.70;97.50;;;;;;7373884;32;20182;-58
2023/07/06 12:28:47;;;;;;;4.45;0.65;;;22.20;97.70;;;;;;7367773;32;20566;-57
2023/07/06 12:32:50;;;;;;;3.47;0.90;;;22.40;94.50;;;;;;7370402;32;20161;-57
2023/07/06 12:36:54;;;;;;;3.15;0.90;;;23.30;98.60;;;;;;7370404;32;20166;-58
2023/07/06 12:41:14;;;;;;;3.03;0.85;;;24.00;96.40;;;;;;7371112;32;20175;-57
2023/07/06 12:45:20;;;;;;;5.57;0.90;;;23.60;96.10;;;;;;7372453;32;20131;-58
2023/07/06 12:49:23;;;;;;;2.17;0.73;;;23.10;97.30;;;;;;7370640;32;20098;-57
2023/07/06 12:53:28;;;;;;;2.00;0.85;;;22.80;95.50;;;;;;7369767;32;20234;-57
2023/07/06 12:57:36;;;;;;;3.15;0.80;;;22.80;94.90;;;;;;7376937;32;20757;-57
2023/07/06 13:01:45;;;;;;;3.22;0.60;;;23.00;94.90;;;;;;7368088;32;20133;-56
2023/07/06 13:05:55;;;;;;;5.32;0.90;;;23.00;93.30;;;;;;7371061;32;20230;-57
2023/07/06 13:09:58;;;;;;;2.80;0.80;;;22.80;96.40;;;;;;7369113;32;20118;-57
2023/07/06 13:14:06;;;;;;;2.37;0.80;;;22.60;98.00;;;;;;7370582;32;20111;-57
2023/07/06 13:18:15;;;;;;;2.47;0.75;;;23.50;97.50;;;;;;7377182;32;20576;-57
2023/07/06 13:22:17;;;;;;;2.55;0.82;;;23.70;95.40;;;;;;7375469;32;20431;-58
2023/07/06 13:26:19;;;;;;;5.43;0.95;;;23.50;96.80;;;;;;7371223;32;20218;-58
2023/07/06 13:30:21;;;;;;;2.28;1.00;;;23.20;94.90;;;;;;7370679;32;20155;-57
2023/07/06 13:34:23;;;;;;;3.65;1.02;;;23.20;96.80;;;;;;7372163;32;20133;-57
2023/07/06 13:38:28;;;;;;;2.05;0.80;;;23.40;94.50;;;;;;7367372;32;20107;-57
2023/07/06 13:42:30;;;;;;;4.03;0.98;;;23.10;95.90;;;;;;7372664;32;20137;-57
2023/07/06 13:46:34;;;;;;;1.37;0.62;;;23.10;97.00;;;;;;7370152;32;20273;-57
2023/07/06 13:50:36;;;;;;;2.85;1.05;;;22.70;96.60;;;;;;7379627;32;20445;-56
2023/07/06 13:54:38;;;;;;;4.60;0.93;;;22.90;96.60;;;;;;7373864;32;20156;-56
2023/07/06 13:58:43;;;;;;;3.20;0.73;;;23.50;95.00;;;;;;7375541;32;20178;-56
2023/07/06 14:02:48;;;;;;;1.75;0.70;;;23.70;91.60;;;;;;7378327;32;20174;-58
2023/07/06 14:06:50;;;;;;;3.30;1.20;;;23.50;94.60;;;;;;7375559;32;20155;-57
2023/07/06 14:10:53;;;;;;;3.53;0.90;;;23.50;92.70;;;;;;7371680;32;20230;-57
2023/07/06 14:14:55;;;;;;;2.10;0.90;;;23.80;91.90;;;;;;7376038;32;20108;-57
2023/07/06 14:18:56;;;;;;;2.58;1.00;;;23.60;92.00;;;;;;7376948;32;20186;-57
2023/07/06 14:22:58;;;;;;;2.03;1.02;;;23.80;92.50;;;;;;7362142;32;20160;-57
2023/07/06 14:27:00;;;;;;;2.03;0.95;;;24.80;92.30;;;;;;7367574;32;20202;-56
2023/07/06 14:31:05;;;;;;;2.37;1.00;;;25.50;92.50;;;;;;7374932;32;20159;-57
2023/07/06 14:35:11;;;;;;;2.17;1.17;;;25.90;91.40;;;;;;7378898;32;20165;-56
2023/07/06 14:39:13;;;;;;;4.43;1.20;;;26.20;85.90;;;;;;7371271;32;20111;-57
2023/07/06 14:43:15;;;;;;;2.62;0.88;;;26.20;89.00;;;;;;7373382;32;20816;-56
2023/07/06 14:47:17;;;;;;;3.87;1.00;;;26.00;86.10;;;;;;7373176;32;20590;-56
2023/07/06 14:51:21;;;;;;;3.55;0.90;;;25.70;86.40;;;;;;7380984;32;20582;-56
2023/07/06 14:55:23;;;;;;;2.72;1.20;;;25.20;88.50;;;;;;7380197;32;20595;-56
2023/07/06 14:59:25;;;;;;;5.45;1.12;;;24.80;89.40;;;;;;7380150;32;20146;-56
2023/07/06 15:03:27;;;;;;;3.17;0.90;;;24.60;88.90;;;;;;7371856;32;20472;-56
2023/07/06 15:07:29;;;;;;;1.85;0.90;;;24.70;89.10;;;;;;7378466;32;20115;-56
2023/07/06 15:11:31;;;;;;;2.90;1.17;;;24.70;85.80;;;;;;7373731;32;20102;-56
2023/07/06 15:15:33;;;;;;;3.03;0.90;;;24.70;89.20;;;;;;7378770;32;20346;-56
2023/07/06 15:19:34;;;;;;;3.60;1.20;;;24.90;85.80;;;;;;7371622;32;20133;-57
2023/07/06 15:23:38;;;;;;;4.22;1.00;;;24.30;90.00;;;;;;7372987;32;20107;-56
2023/07/06 15:27:40;;;;;;;3.78;1.17;;;23.70;89.60;;;;;;7379115;32;20170;-56
2023/07/06 15:31:45;;;;;;;1.98;1.00;;;23.20;91.10;;;;;;7379534;32;20124;-57
2023/07/06 15:35:48;;;;;;;3.83;1.10;;;22.80;93.40;;;;;;7382253;32;20114;-56
2023/07/06 15:39:49;;;;;;;3.10;1.02;;;22.80;91.10;;;;;;7376656;32;20178;-56
2023/07/06 15:43:51;;;;;;;2.80;1.23;;;22.80;92.30;;;;;;7376702;32;20168;-57
2023/07/06 15:47:53;;;;;;;1.92;1.00;;;22.60;91.10;;;;;;7376783;32;20748;-57
2023/07/06 15:52:00;;;;;;;2.55;1.37;;;22.30;93.50;;;;;;7371216;32;20115;-57
2023/07/06 15:56:04;;;;;;;2.87;1.17;;;22.40;92.50;;;;;;7382507;32;20190;-58
2023/07/06 16:00:06;;;;;;;2.78;1.15;;;22.60;89.40;;;;;;7380296;32;20126;-57
2023/07/06 16:04:13;;;;;;;2.30;1.00;;;22.90;87.00;;;;;;7370321;32;20103;-58
2023/07/06 16:08:15;;;;;;;3.00;1.45;;;23.20;91.70;;;;;;7373449;32;20125;-57
2023/07/06 16:12:17;;;;;;;1.52;0.98;;;23.30;86.70;;;;;;7381007;32;20182;-57
2023/07/06 16:16:19;;;;;;;2.37;1.23;;;23.50;86.20;;;;;;7380138;32;20161;-57
2023/07/06 16:20:21;;;;;;;1.90;1.05;;;23.60;82.20;;;;;;7375154;32;20189;-57
2023/07/06 16:24:23;;;;;;;2.75;1.20;;;23.60;83.00;;;;;;7374004;32;20130;-57
2023/07/06 16:28:25;;;;;;;2.83;1.00;;;23.50;83.90;;;;;;7372224;32;20199;-57
2023/07/06 16:32:26;;;;;;;2.17;1.12;;;23.30;83.60;;;;;;7378584;32;20133;-57
2023/07/06 16:36:29;;;;;;;2.62;0.90;;;23.10;86.30;;;;;;7375323;32;20200;-56
2023/07/06 16:40:34;;;;;;;5.00;1.10;;;23.10;81.10;;;;;;7373283;32;20521;-57
2023/07/06 16:44:35;;;;;;;3.83;0.82;;;22.90;86.10;;;;;;7372727;32;20141;-57
2023/07/06 16:48:37;;;;;;;3.03;1.17;;;22.80;88.10;;;;;;7373824;32;20111;-57
2023/07/06 16:52:39;;;;;;;2.35;1.15;;;22.50;88.00;;;;;;7377374;32;20099;-57
2023/07/06 16:56:41;;;;;;;2.67;1.12;;;22.60;85.20;;;;;;7369496;32;20098;-57
2023/07/06 17:00:44;;;;;;;3.40;1.80;;;22.50;86.70;;;;;;7370327;32;20187;-57
2023/07/06 17:04:46;;;;;;;2.67;0.98;;;22.50;85.30;;;;;;7370464;32;20111;-57
2023/07/06 17:08:47;;;;;;;5.40;1.08;;;22.40;81.70;;;;;;7375510;32;20141;-57
2023/07/06 17:12:51;;;;;;;2.53;1.10;;;22.30;83.60;;;;;;7377727;32;20114;-57
2023/07/06 17:16:53;;;;;;;2.67;1.30;;;22.10;88.50;;;;;;7363503;32;20642;-58
2023/07/06 17:20:59;;;;;;;5.40;1.33;;;22.10;86.50;;;;;;7371396;32;20193;-56
2023/07/06 17:25:02;;;;;;;4.05;1.05;;;22.10;88.90;;;;;;7376417;32;20111;-57
2023/07/06 17:29:04;;;;;;;2.72;1.67;;;22.10;90.00;;;;;;7378831;32;20111;-57
2023/07/06 17:33:06;;;;;;;3.67;1.17;;;22.00;89.60;;;;;;7367420;32;20115;-57
2023/07/06 17:37:07;;;;;;;2.22;1.08;;;22.00;88.80;;;;;;7371441;32;20723;-57
2023/07/06 17:41:11;;;;;;;9.93;6.95;;;21.90;88.80;;;;;;7372602;32;20102;-57
2023/07/06 17:45:12;;;;;;;3.15;1.05;;;21.70;90.20;;;;;;7377966;32;20171;-57
2023/07/06 17:49:14;;;;;;;3.17;1.05;;;21.60;90.60;;;;;;7369609;32;20104;-58
2023/07/06 17:53:18;;;;;;;2.62;0.98;;;21.50;91.30;;;;;;7376275;32;20103;-57
2023/07/06 17:57:20;;;;;;;2.70;1.08;;;21.50;91.40;;;;;;7368734;32;20943;-57
2023/07/06 18:01:22;;;;;;;4.68;1.10;;;21.50;91.90;;;;;;7377288;32;20179;-56
2023/07/06 18:05:23;;;;;;;3.17;1.08;;;21.60;87.20;;;;;;7369979;32;20210;-57
2023/07/06 18:09:27;;;;;;;2.58;1.00;;;21.40;89.90;;;;;;7378411;32;20163;-57
2023/07/06 18:13:29;;;;;;;2.87;0.95;;;21.30;90.90;;;;;;7382576;32;20126;-56
2023/07/06 18:17:31;;;;;;;3.33;0.90;;;21.30;90.50;;;;;;7372720;32;20149;-58
2023/07/06 18:21:33;;;;;;;3.03;1.00;;;21.20;90.20;;;;;;7385588;32;20252;-57
2023/07/06 18:25:39;;;;;;;2.85;1.10;;;21.20;91.60;;;;;;7369190;32;20110;-57
2023/07/06 18:29:43;;;;;;;2.62;0.90;;;21.10;90.70;;;;;;7367098;32;20182;-57
2023/07/06 18:33:45;;;;;;;2.15;0.90;;;21.00;91.00;;;;;;7383916;32;20103;-56
2023/07/06 18:37:46;;;;;;;2.83;1.00;;;20.80;92.30;;;;;;7380594;32;20482;-57
2023/07/06 18:41:48;;;;;;;2.30;1.20;;;20.70;95.40;;;;;;7374271;32;20099;-56
2023/07/06 18:45:56;;;;;;;2.65;1.08;;;20.70;95.90;;;;;;7382319;32;20130;-57
2023/07/06 18:50:06;;;;;;;2.92;1.05;;;20.40;99.90;;;;;;7377388;32;20168;-57
2023/07/06 18:54:08;;;;;;;1.90;1.10;;;20.30;99.60;;;;;;7367111;32;20107;-57
2023/07/06 18:58:10;;;;;;;2.83;1.10;;;20.00;99.90;;;;;;7378326;32;20103;-58
2023/07/06 19:02:12;;;;;;;3.92;1.15;;;19.70;99.90;;;;;;7377523;32;20103;-58
2023/07/06 19:06:14;;;;;;;2.45;1.20;;;19.60;99.90;;;;;;7379278;32;20636;-56
2023/07/06 19:10:20;;;;;;;3.58;1.30;;;19.20;99.90;;;;;;7380425;32;20178;-56
2023/07/06 19:14:21;;;;;;;4.87;1.10;;;19.00;99.90;;;;;;7375852;32;20194;-56
2023/07/06 19:18:23;;;;;;;2.15;1.10;;;18.60;99.90;;;;;;7375215;32;20474;-56
2023/07/06 19:22:25;;;;;;;2.33;1.23;;;18.40;99.90;;;;;;7377014;32;20465;-57
2023/07/06 19:26:28;;;;;;;7.18;1.60;;;18.20;99.90;;;;;;7383825;32;20565;-56
2023/07/06 19:30:31;;;;;;;6.22;1.45;;;17.90;99.90;;;;;;7374365;32;20163;-56
2023/07/06 19:34:33;;;;;;;5.68;1.60;;;17.70;99.90;;;;;;7376402;32;20925;-56
2023/07/06 19:38:35;;;;;;;7.37;1.77;;;17.40;99.90;;;;;;7368612;32;20103;-56
2023/07/06 19:42:36;;;;;;;3.60;1.42;;;17.20;99.90;;;;;;7371051;32;20126;-56
2023/07/06 19:46:38;;;;;;;6.50;1.50;;;17.00;99.90;;;;;;7383145;32;20133;-56
2023/07/06 19:50:40;;;;;;;10.45;1.50;;;16.80;99.90;;;;;;7377548;32;20115;-56
2023/07/06 19:54:42;;;;;;;8.13;1.60;;;16.70;99.90;;;;;;7367794;32;20121;-56
2023/07/06 19:58:44;;;;;;;4.70;1.55;;;16.50;99.90;;;;;;7378025;32;20248;-56
2023/07/06 20:02:46;;;;;;;5.57;1.65;;;16.30;99.90;;;;;;7376504;32;20563;-55
2023/07/06 20:06:48;;;;;;;7.95;1.67;;;16.10;99.90;;;;;;7368832;32;20696;-55
2023/07/06 20:10:55;;;;;;;4.85;1.65;;;15.90;99.90;;;;;;7376285;32;20138;-54
2023/07/06 20:14:57;;;;;;;6.75;1.52;;;15.80;99.90;;;;;;7376903;32;20491;-55
2023/07/06 20:18:59;;;;;;;5.07;1.40;;;15.60;99.90;;;;;;7370442;32;20118;-55
2023/07/06 20:23:00;;;;;;;4.37;1.50;;;15.40;99.90;;;;;;7375223;32;20155;-56
2023/07/06 20:27:02;;;;;;;4.18;1.90;;;15.30;99.90;;;;;;7376376;32;20446;-55
2023/07/06 20:31:06;;;;;;;5.57;1.90;;;15.20;99.90;;;;;;7375368;32;20099;-55
2023/07/06 20:35:08;;;;;;;4.80;1.65;;;15.00;99.90;;;;;;7381155;32;20141;-55
2023/07/06 20:39:09;;;;;;;3.97;1.60;;;14.90;99.90;;;;;;7381416;32;20121;-55
2023/07/06 20:43:11;;;;;;;6.03;1.70;;;14.80;99.90;;;;;;7379119;32;20135;-55
2023/07/06 20:47:13;;;;;;;3.20;1.37;;;14.70;99.90;;;;;;7380778;32;20103;-54
2023/07/06 20:51:15;;;;;;;6.80;1.73;;;14.60;99.90;;;;;;7362472;32;20276;-54
2023/07/06 20:55:16;;;;;;;8.32;1.80;;;14.50;99.90;;;;;;7367788;32;20422;-55
2023/07/06 20:59:18;;;;;;;5.75;2.03;;;14.40;99.90;;;;;;7362594;32;20307;-54
2023/07/06 21:03:20;;;;;;;5.93;1.85;;;14.30;99.90;;;;;;7372934;32;20509;-55
2023/07/06 21:07:21;;;;;;;2.20;1.50;;;14.20;99.90;;;;;;7375836;32;20122;-55
2023/07/06 21:11:23;;;;;;;4.12;1.73;;;14.10;99.90;;;;;;7370127;32;20528;-55
2023/07/06 21:15:25;;;;;;;4.28;1.73;;;13.90;99.90;;;;;;7370998;32;20204;-55